createdAt,value
2019-02-02T00:00:32.072Z,99070.55
2019-02-02T00:03:00.702Z,99065.44
2019-02-02T00:05:29.318Z,99066.91
2019-02-02T00:07:57.927Z,99058.89
2019-02-02T00:10:26.506Z,99055.56
2019-02-02T00:12:55.174Z,99056.12
2019-02-02T00:15:23.878Z,99045.03
2019-02-02T00:17:52.496Z,99044.34
2019-02-02T00:20:21.120Z,99045.36
2019-02-02T00:22:49.739Z,99043.73
2019-02-02T00:25:18.398Z,99042.17
2019-02-02T00:27:47.881Z,99058.89
2019-02-02T00:30:20.891Z,99054.66
2019-02-02T00:32:49.837Z,99055.62
2019-02-02T00:35:18.586Z,99051.84
2019-02-02T00:37:47.146Z,99050.88
2019-02-02T00:40:17.818Z,99060.02
2019-02-02T00:42:46.426Z,99060.69
2019-02-02T00:45:19.271Z,99060.97
2019-02-02T00:47:48.092Z,99059.27
2019-02-02T00:50:17.187Z,99054.63
2019-02-02T00:52:45.824Z,99059.92
2019-02-02T00:55:19.276Z,99066.27
2019-02-02T00:57:53.467Z,99063.55
2019-02-02T01:00:27.987Z,99068.25
2019-02-02T01:02:56.897Z,99079.37
2019-02-02T01:05:25.588Z,99079.72
2019-02-02T01:07:55.219Z,99065.37
2019-02-02T01:10:35.604Z,99064.33
2019-02-02T01:13:05.227Z,99071.55
2019-02-02T01:15:34.011Z,99074.00
2019-02-02T01:18:02.697Z,99075.30
2019-02-02T01:20:31.372Z,99071.05
2019-02-02T01:22:59.961Z,99072.22
2019-02-02T01:25:28.605Z,99076.48
2019-02-02T01:28:04.845Z,99093.33
2019-02-02T01:32:49.934Z,99095.08
2019-02-02T01:35:19.338Z,99096.75
2019-02-02T01:37:48.024Z,99099.43
2019-02-02T01:40:22.045Z,99099.73
2019-02-02T01:42:50.842Z,99098.43
2019-02-02T01:45:24.804Z,99095.95
2019-02-02T01:47:53.716Z,99093.69
2019-02-02T01:50:26.880Z,99084.72
2019-02-02T01:52:55.605Z,99077.66
2019-02-02T01:55:24.363Z,99075.34
2019-02-02T01:57:52.966Z,99082.16
2019-02-02T02:00:33.000Z,99077.51
2019-02-02T02:03:01.730Z,99084.92
2019-02-02T02:05:30.427Z,99079.99
2019-02-02T02:08:00.223Z,99079.26
2019-02-02T02:10:28.860Z,99087.30
2019-02-02T02:12:57.453Z,99082.27
2019-02-02T02:15:26.040Z,99081.94
2019-02-02T02:17:54.653Z,99082.17
2019-02-02T02:20:24.411Z,99082.47
2019-02-02T02:22:53.164Z,99079.95
2019-02-02T02:25:21.984Z,99078.49
2019-02-02T02:27:50.891Z,99083.66
2019-02-02T02:30:21.957Z,99073.95
2019-02-02T02:32:50.878Z,99073.91
2019-02-02T02:35:19.514Z,99074.06
2019-02-02T02:37:48.155Z,99074.42
2019-02-02T02:40:19.025Z,99077.50
2019-02-02T02:42:47.590Z,99076.08
2019-02-02T02:45:16.523Z,99081.45
2019-02-02T02:47:45.357Z,99077.56
2019-02-02T02:50:15.839Z,99074.58
2019-02-02T02:52:44.451Z,99076.63
2019-02-02T02:55:14.800Z,99076.63
2019-02-02T02:57:43.374Z,99088.02
2019-02-02T03:00:23.494Z,99093.50
2019-02-02T03:02:52.325Z,99087.09
2019-02-02T03:05:21.437Z,99088.59
2019-02-02T03:07:51.362Z,99094.22
2019-02-02T03:10:25.093Z,99094.15
2019-02-02T03:12:54.117Z,99102.43
2019-02-02T03:15:22.695Z,99111.50
2019-02-02T03:17:51.898Z,99115.67
2019-02-02T03:20:20.721Z,99122.73
2019-02-02T03:22:49.426Z,99122.57
2019-02-02T03:25:23.391Z,99127.38
2019-02-02T03:27:51.968Z,99131.23
2019-02-02T03:30:21.971Z,99133.59
2019-02-02T03:32:50.654Z,99135.55
2019-02-02T03:35:21.427Z,99138.33
2019-02-02T03:37:50.226Z,99135.52
2019-02-02T03:40:20.646Z,99138.56
2019-02-02T03:42:49.417Z,99137.34
2019-02-02T03:45:20.445Z,99140.14
2019-02-02T03:47:49.376Z,99138.80
2019-02-02T03:50:18.061Z,99135.05
2019-02-02T03:52:46.664Z,99133.55
2019-02-02T03:55:16.172Z,99139.47
2019-02-02T03:57:44.863Z,99147.59
2019-02-02T04:00:21.579Z,99150.88
2019-02-02T04:02:50.473Z,99160.69
2019-02-02T04:05:24.732Z,99160.28
2019-02-02T04:07:53.480Z,99157.83
2019-02-02T04:10:22.158Z,99156.38
2019-02-02T04:12:50.778Z,99167.89
2019-02-02T04:15:19.824Z,99171.24
2019-02-02T04:17:48.466Z,99174.41
2019-02-02T04:20:21.930Z,99174.29
2019-02-02T04:22:50.747Z,99175.94
2019-02-02T04:25:20.781Z,99180.55
2019-02-02T04:27:49.407Z,99175.02
2019-02-02T04:30:26.504Z,99175.02
2019-02-02T04:32:55.291Z,99173.91
2019-02-02T04:35:24.340Z,99172.07
2019-02-02T04:37:52.931Z,99175.88
2019-02-02T04:40:21.738Z,99175.14
2019-02-02T04:42:50.282Z,99172.58
2019-02-02T04:45:18.959Z,99165.69
2019-02-02T04:47:47.487Z,99164.23
2019-02-02T04:50:20.526Z,99161.24
2019-02-02T04:52:49.082Z,99168.78
2019-02-02T04:55:19.513Z,99171.47
2019-02-02T04:57:48.532Z,99178.45
2019-02-02T05:00:22.495Z,99192.58
2019-02-02T05:02:51.099Z,99194.98
2019-02-02T05:05:20.061Z,99196.84
2019-02-02T05:07:48.776Z,99194.41
2019-02-02T05:10:24.651Z,99202.67
2019-02-02T05:12:53.510Z,99200.82
2019-02-02T05:15:22.192Z,99201.17
2019-02-02T05:17:50.871Z,99202.00
2019-02-02T05:20:21.055Z,99204.63
2019-02-02T05:22:49.884Z,99202.45
2019-02-02T05:25:18.654Z,99205.75
2019-02-02T05:27:47.298Z,99203.59
2019-02-02T05:30:18.809Z,99209.27
2019-02-02T05:32:47.341Z,99215.26
2019-02-02T05:35:16.101Z,99216.59
2019-02-02T05:37:44.666Z,99220.86
2019-02-02T05:40:15.870Z,99221.28
2019-02-02T05:42:44.871Z,99220.75
2019-02-02T05:45:15.744Z,99225.13
2019-02-02T05:47:44.372Z,99221.59
2019-02-02T05:50:15.115Z,99219.72
2019-02-02T05:52:43.646Z,99215.39
2019-02-02T05:55:14.673Z,99221.40
2019-02-02T05:57:43.254Z,99216.22
2019-02-02T06:00:22.282Z,99212.49
2019-02-02T06:02:50.899Z,99206.17
2019-02-02T06:05:19.508Z,99211.11
2019-02-02T06:07:48.096Z,99213.48
2019-02-02T06:10:19.627Z,99206.09
2019-02-02T06:12:48.233Z,99212.45
2019-02-02T06:15:17.060Z,99212.91
2019-02-02T06:17:45.644Z,99214.51
2019-02-02T06:20:15.877Z,99214.77
2019-02-02T06:22:45.610Z,99220.38
2019-02-02T06:25:15.430Z,99225.36
2019-02-02T06:27:44.021Z,99221.95
2019-02-02T06:30:15.694Z,99220.36
2019-02-02T06:32:44.342Z,99216.19
2019-02-02T06:35:13.773Z,99218.63
2019-02-02T06:37:42.465Z,99213.61
2019-02-02T06:40:13.626Z,99220.63
2019-02-02T06:42:42.558Z,99225.09
2019-02-02T06:45:23.088Z,99222.65
2019-02-02T06:47:51.702Z,99229.08
2019-02-02T06:50:20.286Z,99239.05
2019-02-02T06:52:48.895Z,99233.98
2019-02-02T06:55:17.821Z,99245.84
2019-02-02T06:57:46.417Z,99260.13
2019-02-02T07:00:20.356Z,99264.19
2019-02-02T07:02:49.085Z,99261.69
2019-02-02T07:05:17.961Z,99261.95
2019-02-02T07:07:46.697Z,99264.16
2019-02-02T07:10:20.482Z,99270.49
2019-02-02T07:12:49.041Z,99271.56
2019-02-02T07:15:26.511Z,99280.88
2019-02-02T07:17:55.323Z,99279.94
2019-02-02T07:20:23.887Z,99286.09
2019-02-02T07:22:52.512Z,99282.30
2019-02-02T07:25:20.968Z,99282.66
2019-02-02T07:27:49.539Z,99284.70
2019-02-02T07:30:28.256Z,99295.73
2019-02-02T07:32:50.191Z,99299.95
2019-02-02T07:35:18.947Z,99297.44
2019-02-02T07:37:47.526Z,99311.17
2019-02-02T07:40:17.747Z,99302.30
2019-02-02T07:42:46.740Z,99309.71
2019-02-02T07:45:20.834Z,99312.03
2019-02-02T07:47:49.535Z,99315.33
2019-02-02T07:50:18.563Z,99320.27
2019-02-02T07:52:47.143Z,99319.05
2019-02-02T07:55:22.931Z,99325.63
2019-02-02T07:57:51.550Z,99331.26
2019-02-02T08:00:23.222Z,99334.19
2019-02-02T08:02:51.814Z,99341.02
2019-02-02T08:05:20.327Z,99347.22
2019-02-02T08:07:48.963Z,99356.28
2019-02-02T08:10:17.561Z,99357.98
2019-02-02T08:12:46.289Z,99360.09
2019-02-02T08:15:20.868Z,99361.83
2019-02-02T08:17:49.497Z,99375.10
2019-02-02T08:20:18.111Z,99369.66
2019-02-02T08:22:46.936Z,99372.06
2019-02-02T08:25:16.528Z,99377.33
2019-02-02T08:27:45.204Z,99373.22
2019-02-02T08:30:18.855Z,99380.66
2019-02-02T08:32:47.485Z,99381.02
2019-02-02T08:35:16.146Z,99388.11
2019-02-02T08:37:44.954Z,99392.94
2019-02-02T08:40:15.946Z,99397.39
2019-02-02T08:42:44.512Z,99404.27
2019-02-02T08:45:14.434Z,99404.51
2019-02-02T08:47:43.150Z,99416.11
2019-02-02T08:50:20.375Z,99420.66
2019-02-02T08:52:48.992Z,99428.50
2019-02-02T08:55:17.598Z,99433.94
2019-02-02T08:57:47.285Z,99441.16
2019-02-02T09:00:18.378Z,99436.41
2019-02-02T09:02:47.062Z,99443.78
2019-02-02T09:05:18.855Z,99450.14
2019-02-02T09:07:47.593Z,99458.23
2019-02-02T09:10:18.635Z,99463.12
2019-02-02T09:12:47.425Z,99471.80
2019-02-02T09:15:17.770Z,99469.91
2019-02-02T09:17:46.532Z,99467.77
2019-02-02T09:20:15.750Z,99475.45
2019-02-02T09:22:44.926Z,99475.38
2019-02-02T09:25:18.309Z,99477.26
2019-02-02T09:27:47.168Z,99477.89
2019-02-02T09:30:18.530Z,99487.67
2019-02-02T09:32:47.308Z,99489.28
2019-02-02T09:35:15.905Z,99488.91
2019-02-02T09:37:44.824Z,99491.80
2019-02-02T09:40:16.097Z,99487.22
2019-02-02T09:42:44.785Z,99492.22
2019-02-02T09:45:18.725Z,99501.58
2019-02-02T09:47:47.302Z,99508.36
2019-02-02T09:50:18.750Z,99502.99
2019-02-02T09:52:47.417Z,99508.19
2019-02-02T09:55:18.237Z,99511.67
2019-02-02T09:57:46.984Z,99518.06
2019-02-02T10:00:20.746Z,99523.66
2019-02-02T10:02:49.539Z,99527.52
2019-02-02T10:05:19.244Z,99530.63
2019-02-02T10:07:48.332Z,99527.27
2019-02-02T10:10:22.462Z,99523.20
2019-02-02T10:12:51.018Z,99532.47
2019-02-02T10:15:19.889Z,99534.35
2019-02-02T10:17:49.734Z,99539.06
2019-02-02T10:20:24.078Z,99544.75
2019-02-02T10:22:52.717Z,99543.70
2019-02-02T10:25:26.535Z,99544.02
2019-02-02T10:27:55.189Z,99550.69
2019-02-02T10:30:38.196Z,99549.63
2019-02-02T10:33:07.170Z,99552.00
2019-02-02T10:35:35.805Z,99563.33
2019-02-02T10:38:04.939Z,99565.91
2019-02-02T10:40:33.604Z,99570.88
2019-02-02T10:43:02.252Z,99565.08
2019-02-02T10:45:30.834Z,99570.80
2019-02-02T10:47:59.454Z,99575.55
2019-02-02T10:50:28.244Z,99574.08
2019-02-02T10:52:57.049Z,99574.45
2019-02-02T10:55:25.733Z,99574.52
2019-02-02T10:57:54.322Z,99574.45
2019-02-02T11:00:26.021Z,99570.08
2019-02-02T11:02:54.608Z,99576.63
2019-02-02T11:05:23.287Z,99580.48
2019-02-02T11:07:54.310Z,99578.31
2019-02-02T11:10:24.589Z,99585.92
2019-02-02T11:12:53.333Z,99585.44
2019-02-02T11:15:23.207Z,99588.84
2019-02-02T11:17:51.874Z,99587.19
2019-02-02T11:20:26.038Z,99589.25
2019-02-02T11:22:54.664Z,99593.77
2019-02-02T11:25:23.350Z,99598.63
2019-02-02T11:27:52.030Z,99593.19
2019-02-02T11:30:21.972Z,99597.77
2019-02-02T11:32:50.640Z,99597.91
2019-02-02T11:35:20.745Z,99600.36
2019-02-02T11:37:49.440Z,99604.29
2019-02-02T11:40:20.645Z,99600.98
2019-02-02T11:42:49.354Z,99605.45
2019-02-02T11:45:18.143Z,99606.63
2019-02-02T11:47:46.746Z,99605.78
2019-02-02T11:50:20.385Z,99612.87
2019-02-02T11:52:49.174Z,99621.06
2019-02-02T11:55:22.653Z,99620.00
2019-02-02T11:57:51.226Z,99620.86
2019-02-02T12:00:28.237Z,99621.86
2019-02-02T12:02:57.396Z,99631.20
2019-02-02T12:05:26.102Z,99626.46
2019-02-02T12:07:54.798Z,99631.36
2019-02-02T12:10:28.486Z,99640.42
2019-02-02T12:12:57.099Z,99643.87
2019-02-02T12:15:25.819Z,99642.60
2019-02-02T12:17:54.679Z,99647.20
2019-02-02T12:20:33.152Z,99658.20
2019-02-02T12:23:01.414Z,99659.73
2019-02-02T12:25:30.026Z,99666.82
2019-02-02T12:27:58.664Z,99668.41
2019-02-02T12:30:29.868Z,99677.47
2019-02-02T12:32:58.494Z,99680.73
2019-02-02T12:35:28.589Z,99685.25
2019-02-02T12:37:57.400Z,99694.81
2019-02-02T12:40:27.240Z,99696.06
2019-02-02T12:42:56.000Z,99705.55
2019-02-02T12:45:42.639Z,99711.87
2019-02-02T12:48:11.357Z,99719.75
2019-02-02T12:50:39.958Z,99727.75
2019-02-02T12:53:08.664Z,99724.97
2019-02-02T12:55:37.256Z,99728.67
2019-02-02T12:58:06.963Z,99735.42
2019-02-02T13:00:35.674Z,99733.78
2019-02-02T13:03:04.875Z,99736.95
2019-02-02T13:05:33.519Z,99737.20
2019-02-02T13:08:05.007Z,99736.27
2019-02-02T13:10:33.052Z,99739.47
2019-02-02T13:13:01.614Z,99740.46
2019-02-02T13:15:30.224Z,99739.97
2019-02-02T13:17:58.806Z,99740.29
2019-02-02T13:20:27.448Z,99737.70
2019-02-02T13:22:56.071Z,99739.70
2019-02-02T13:25:24.960Z,99739.02
2019-02-02T13:27:53.655Z,99746.67
2019-02-02T13:30:30.389Z,99752.05
2019-02-02T13:32:58.975Z,99757.31
2019-02-02T13:35:29.003Z,99757.91
2019-02-02T13:37:57.591Z,99758.16
2019-02-02T13:40:26.169Z,99768.89
2019-02-02T13:42:54.789Z,99772.87
2019-02-02T13:45:23.869Z,99766.41
2019-02-02T13:47:52.719Z,99775.60
2019-02-02T13:50:21.465Z,99778.19
2019-02-02T13:52:51.780Z,99786.60
2019-02-02T13:55:20.472Z,99789.94
2019-02-02T13:57:49.090Z,99792.30
2019-02-02T14:00:32.115Z,99793.72
2019-02-02T14:03:03.185Z,99795.24
2019-02-02T14:05:30.929Z,99805.31
2019-02-02T14:08:00.227Z,99805.02
2019-02-02T14:10:33.901Z,99814.39
2019-02-02T14:13:02.360Z,99817.41
2019-02-02T14:15:30.960Z,99823.41
2019-02-02T14:17:59.514Z,99827.73
2019-02-02T14:20:28.106Z,99827.25
2019-02-02T14:22:56.705Z,99841.94
2019-02-02T14:25:25.428Z,99838.78
2019-02-02T14:27:54.072Z,99841.10
2019-02-02T14:30:24.464Z,99851.09
2019-02-02T14:32:54.872Z,99853.66
2019-02-02T14:35:25.314Z,99851.59
2019-02-02T14:37:53.951Z,99853.70
2019-02-02T14:40:22.541Z,99889.43
2019-02-02T14:42:51.230Z,99858.34
2019-02-02T14:45:27.267Z,99863.17
2019-02-02T14:47:55.874Z,99868.62
2019-02-02T14:50:25.051Z,99873.36
2019-02-02T14:52:54.874Z,99879.80
2019-02-02T14:55:25.257Z,99880.41
2019-02-02T14:57:54.243Z,99880.16
2019-02-02T15:00:24.889Z,99890.59
2019-02-02T15:02:53.578Z,99905.34
2019-02-02T15:05:22.488Z,99901.61
2019-02-02T15:07:52.060Z,99911.53
2019-02-02T15:10:21.881Z,99919.73
2019-02-02T15:12:50.474Z,99926.30
2019-02-02T15:15:19.593Z,99932.36
2019-02-02T15:17:49.352Z,99933.69
2019-02-02T15:20:26.192Z,99940.15
2019-02-02T15:22:54.816Z,99938.56
2019-02-02T15:25:23.398Z,99948.83
2019-02-02T15:27:52.086Z,99955.23
2019-02-02T15:30:23.606Z,99957.50
2019-02-02T15:32:52.464Z,99960.93
2019-02-02T15:35:21.040Z,99967.47
2019-02-02T15:37:49.684Z,99964.11
2019-02-02T15:40:19.472Z,99972.53
2019-02-02T15:42:48.040Z,99977.61
2019-02-02T15:45:32.624Z,99980.75
2019-02-02T15:48:01.970Z,99978.91
2019-02-02T15:50:30.541Z,99986.07
2019-02-02T15:52:59.185Z,99988.20
2019-02-02T15:55:27.779Z,99989.93
2019-02-02T15:57:56.408Z,100001.23
2019-02-02T16:00:30.426Z,100001.23
2019-02-02T16:02:59.053Z,100008.55
2019-02-02T16:05:28.376Z,100021.19
2019-02-02T16:07:58.551Z,100021.92
2019-02-02T16:10:29.379Z,100027.54
2019-02-02T16:12:58.030Z,100025.58
2019-02-02T16:15:26.629Z,100039.20
2019-02-02T16:17:55.191Z,100045.76
2019-02-02T16:20:26.582Z,100054.49
2019-02-02T16:22:55.284Z,100064.64
2019-02-02T16:25:24.009Z,100064.20
2019-02-02T16:27:52.604Z,100077.57
2019-02-02T16:30:26.561Z,100086.60
2019-02-02T16:32:55.325Z,100090.03
2019-02-02T16:35:24.058Z,100091.11
2019-02-02T16:37:52.649Z,100095.52
2019-02-02T16:40:28.917Z,100099.72
2019-02-02T16:42:57.947Z,100101.38
2019-02-02T16:45:34.141Z,100107.42
2019-02-02T16:48:02.955Z,100114.28
2019-02-02T16:50:31.541Z,100121.24
2019-02-02T16:53:00.171Z,100126.64
2019-02-02T16:55:28.806Z,100130.66
2019-02-02T16:57:57.437Z,100139.70
2019-02-02T17:00:31.183Z,100144.23
2019-02-02T17:02:59.907Z,100150.91
2019-02-02T17:05:28.548Z,100157.50
2019-02-02T17:07:57.083Z,100155.97
2019-02-02T17:10:27.816Z,100170.50
2019-02-02T17:12:56.451Z,100171.56
2019-02-02T17:15:25.087Z,100178.77
2019-02-02T17:17:53.772Z,100188.39
2019-02-02T17:20:28.003Z,100191.02
2019-02-02T17:22:56.516Z,100196.90
2019-02-02T17:25:25.114Z,100203.09
2019-02-02T17:27:53.829Z,100212.42
2019-02-02T17:30:24.765Z,100208.66
2019-02-02T17:32:55.640Z,100218.61
2019-02-02T17:35:24.217Z,100220.46
2019-02-02T17:37:52.842Z,100222.47
2019-02-02T17:40:24.013Z,100225.23
2019-02-02T17:42:52.680Z,100227.80
2019-02-02T17:45:22.536Z,100229.58
2019-02-02T17:47:51.237Z,100237.91
2019-02-02T17:50:24.554Z,100240.27
2019-02-02T17:52:53.162Z,100244.76
2019-02-02T17:55:21.848Z,100245.79
2019-02-02T17:57:50.527Z,100254.59
2019-02-02T18:00:29.529Z,100257.23
2019-02-02T18:02:58.137Z,100260.13
2019-02-02T18:05:26.850Z,100273.23
2019-02-02T18:07:55.395Z,100276.66
2019-02-02T18:10:24.031Z,100284.98
2019-02-02T18:12:52.627Z,100300.20
2019-02-02T18:15:21.271Z,100304.95
2019-02-02T18:17:49.883Z,100302.14
2019-02-02T18:20:18.509Z,100318.60
2019-02-02T18:22:47.156Z,100321.34
2019-02-02T18:25:19.445Z,100332.05
2019-02-02T18:27:48.042Z,100337.11
2019-02-02T18:30:24.788Z,100338.70
2019-02-02T18:32:53.421Z,100353.11
2019-02-02T18:35:22.014Z,100359.08
2019-02-02T18:37:50.592Z,100361.51
2019-02-02T18:40:21.769Z,100367.44
2019-02-02T18:42:50.328Z,100374.41
2019-02-02T18:45:22.598Z,100382.44
2019-02-02T18:47:51.302Z,100391.78
2019-02-02T18:50:19.965Z,100394.09
2019-02-02T18:52:50.157Z,100397.38
2019-02-02T18:55:24.342Z,100400.69
2019-02-02T18:57:52.739Z,100411.43
2019-02-02T19:00:21.987Z,100409.56
2019-02-02T19:02:50.514Z,100410.39
2019-02-02T19:05:19.895Z,100408.53
2019-02-02T19:07:48.528Z,100417.09
2019-02-02T19:10:25.904Z,100416.54
2019-02-02T19:12:54.542Z,100416.54
2019-02-02T19:15:23.132Z,100417.61
2019-02-02T19:17:51.719Z,100431.54
2019-02-02T19:20:23.570Z,100435.55
2019-02-02T19:22:52.087Z,100438.75
2019-02-02T19:25:20.700Z,100443.75
2019-02-02T19:27:49.991Z,100453.72
2019-02-02T19:30:21.285Z,100454.32
2019-02-02T19:32:50.038Z,100459.17
2019-02-02T19:35:18.631Z,100465.35
2019-02-02T19:37:47.271Z,100464.83
2019-02-02T19:40:17.052Z,100467.49
2019-02-02T19:42:45.783Z,100471.25
2019-02-02T19:45:16.812Z,100471.50
2019-02-02T19:47:45.477Z,100482.75
2019-02-02T19:50:17.023Z,100487.33
2019-02-02T19:52:45.645Z,100490.53
2019-02-02T19:55:15.116Z,100498.59
2019-02-02T19:57:43.813Z,100509.86
2019-02-02T20:00:21.030Z,100506.60
2019-02-02T20:02:50.155Z,100518.95
2019-02-02T20:05:28.155Z,100522.47
2019-02-02T20:07:49.160Z,100527.01
2019-02-02T20:10:18.528Z,100528.64
2019-02-02T20:12:47.483Z,100533.73
2019-02-02T20:15:20.652Z,100539.09
2019-02-02T20:17:49.304Z,100539.36
2019-02-02T20:20:22.335Z,100545.79
2019-02-02T20:22:51.205Z,100555.97
2019-02-02T20:25:20.615Z,100559.19
2019-02-02T20:27:49.391Z,100566.97
2019-02-02T20:30:20.097Z,100573.13
2019-02-02T20:32:48.757Z,100574.19
2019-02-02T20:35:17.453Z,100570.70
2019-02-02T20:37:46.149Z,100586.24
2019-02-02T20:40:17.765Z,100592.41
2019-02-02T20:42:46.391Z,100590.00
2019-02-02T20:45:17.195Z,100596.45
2019-02-02T20:47:45.896Z,100599.95
2019-02-02T20:50:16.413Z,100603.68
2019-02-02T20:52:47.603Z,100613.34
2019-02-02T20:55:20.375Z,100619.78
2019-02-02T20:57:49.351Z,100628.89
2019-02-02T21:00:23.343Z,100631.30
2019-02-02T21:02:51.969Z,100636.67
2019-02-02T21:05:20.599Z,100637.20
2019-02-02T21:07:49.190Z,100644.44
2019-02-02T21:10:20.067Z,100647.42
2019-02-02T21:12:48.714Z,100645.81
2019-02-02T21:15:17.384Z,100647.40
2019-02-02T21:17:46.323Z,100655.98
2019-02-02T21:20:23.794Z,100672.35
2019-02-02T21:22:52.689Z,100673.97
2019-02-02T21:25:21.392Z,100684.97
2019-02-02T21:27:50.078Z,100693.02
2019-02-02T21:30:27.274Z,100701.33
2019-02-02T21:32:55.876Z,100706.16
2019-02-02T21:35:24.770Z,100714.20
2019-02-02T21:37:53.449Z,100710.98
2019-02-02T21:40:24.321Z,100715.01
2019-02-02T21:42:53.031Z,100717.42
2019-02-02T21:45:21.600Z,100727.91
2019-02-02T21:47:50.611Z,100736.75
2019-02-02T21:50:21.063Z,100738.89
2019-02-02T21:52:49.883Z,100746.69
2019-02-02T21:55:20.470Z,100753.05
2019-02-02T21:57:49.099Z,100757.77
2019-02-02T22:00:22.915Z,100762.64
2019-02-02T22:02:51.452Z,100772.85
2019-02-02T22:05:20.052Z,100772.63
2019-02-02T22:07:48.747Z,100777.75
2019-02-02T22:10:17.574Z,100779.66
2019-02-02T22:12:46.292Z,100782.61
2019-02-02T22:15:18.177Z,100782.61
2019-02-02T22:17:46.968Z,100789.03
2019-02-02T22:20:17.103Z,100791.45
2019-02-02T22:22:45.691Z,100799.52
2019-02-02T22:25:32.098Z,100810.55
2019-02-02T22:28:00.706Z,100814.84
2019-02-02T22:30:31.143Z,100822.23
2019-02-02T22:32:59.697Z,100827.84
2019-02-02T22:35:28.323Z,100829.69
2019-02-02T22:37:57.316Z,100833.17
2019-02-02T22:40:27.885Z,100839.94
2019-02-02T22:42:56.520Z,100841.58
2019-02-02T22:45:25.425Z,100848.30
2019-02-02T22:47:54.070Z,100855.55
2019-02-02T22:50:27.353Z,100862.77
2019-02-02T22:52:56.240Z,100865.68
2019-02-02T22:55:25.623Z,100867.83
2019-02-02T22:57:54.651Z,100872.14
2019-02-02T23:00:51.731Z,100875.16
2019-02-02T23:03:25.884Z,100882.95
2019-02-02T23:06:39.292Z,100888.80
2019-02-02T23:09:21.935Z,100894.61
2019-02-02T23:12:08.453Z,100902.12
2019-02-02T23:14:45.928Z,100907.21
2019-02-02T23:17:14.376Z,100913.42
2019-02-02T23:19:43.046Z,100917.74
2019-02-02T23:22:11.681Z,100927.12
2019-02-02T23:24:40.607Z,100926.25
2019-02-02T23:27:09.196Z,100930.05
2019-02-02T23:29:37.857Z,100937.05
2019-02-02T23:32:06.527Z,100945.67
2019-02-02T23:34:35.057Z,100952.67
2019-02-02T23:37:04.074Z,100953.25
2019-02-02T23:39:32.662Z,100945.80
2019-02-02T23:42:01.221Z,100954.55
2019-02-02T23:44:29.772Z,100952.48
2019-02-02T23:46:58.371Z,100960.70
2019-02-02T23:49:26.942Z,100963.69
2019-02-02T23:51:55.854Z,100958.34
2019-02-02T23:54:24.385Z,100958.83
2019-02-02T23:56:53.016Z,100947.62
2019-02-02T23:59:21.530Z,100945.25
